Time;durP1;ratioP1;P1;durP2;ratioP2;P2;SDS_P1;SDS_P2;PMS_P1;PMS_P2;Temp;Humidity;BMP_temperature;BMP_pressure;BME280_temperature;BME280_humidity;BME280_pressure;Samples;Min_cycle;Max_cycle;Signal;HPM_P1;HPM_P2
2022/12/11 00:01:09;;;;;;;470.00;440.77;;;0.60;99.90;;;;;;5061784;28;21009;-87
2022/12/11 00:03:36;;;;;;;468.10;439.70;;;0.70;99.90;;;;;;5066860;28;20455;-87
2022/12/11 00:06:05;;;;;;;469.53;441.50;;;0.60;99.90;;;;;;5053527;28;20448;-87
2022/12/11 00:08:32;;;;;;;467.83;441.03;;;0.70;99.90;;;;;;5047811;28;20476;-87
2022/12/11 00:10:59;;;;;;;476.50;445.93;;;0.70;99.90;;;;;;5059646;28;20475;-87
2022/12/11 00:13:27;;;;;;;467.47;439.97;;;0.70;99.90;;;;;;5067592;28;20451;-87
2022/12/11 00:15:53;;;;;;;464.77;437.40;;;0.70;99.90;;;;;;5065306;28;20451;-87
2022/12/11 00:18:20;;;;;;;467.37;439.13;;;0.70;99.90;;;;;;5067305;28;20451;-87
2022/12/11 00:20:47;;;;;;;468.67;440.17;;;0.60;99.90;;;;;;5048445;28;20484;-88
2022/12/11 00:23:14;;;;;;;467.23;438.80;;;0.60;99.90;;;;;;5047340;28;20512;-87
2022/12/11 00:25:43;;;;;;;464.50;434.30;;;0.70;99.90;;;;;;5064375;28;20474;-87
2022/12/11 00:28:10;;;;;;;470.77;443.73;;;0.70;99.90;;;;;;5066979;28;20479;-87
2022/12/11 00:30:41;;;;;;;475.43;446.73;;;0.80;99.90;;;;;;5051168;28;21079;-87
2022/12/11 00:33:07;;;;;;;479.20;449.87;;;0.80;99.90;;;;;;5047026;28;20456;-86
2022/12/11 00:35:37;;;;;;;479.30;449.10;;;0.70;99.90;;;;;;5063085;28;20451;-87
2022/12/11 00:38:04;;;;;;;468.30;439.07;;;0.70;99.90;;;;;;5068334;28;20440;-87
2022/12/11 00:40:33;;;;;;;464.00;436.97;;;0.70;99.90;;;;;;5052292;28;20454;-86
2022/12/11 00:43:00;;;;;;;461.43;434.07;;;0.70;99.90;;;;;;5047448;28;20456;-88
2022/12/11 00:45:27;;;;;;;463.10;435.30;;;0.70;99.90;;;;;;5060712;28;20451;-87
2022/12/11 00:47:55;;;;;;;465.13;438.47;;;0.80;99.90;;;;;;5066167;28;20474;-87
2022/12/11 00:50:22;;;;;;;457.33;429.43;;;0.70;99.90;;;;;;5054044;28;20459;-86
2022/12/11 00:52:49;;;;;;;447.77;421.70;;;0.70;99.90;;;;;;5047226;28;20494;-87
2022/12/11 00:55:16;;;;;;;448.67;421.97;;;0.70;99.90;;;;;;5048072;28;20979;-87
2022/12/11 00:57:43;;;;;;;440.67;416.47;;;0.80;99.90;;;;;;5046258;28;20457;-86
2022/12/11 01:00:12;;;;;;;436.13;411.67;;;0.70;99.90;;;;;;5057735;28;20447;-87
2022/12/11 01:02:39;;;;;;;421.27;400.27;;;0.70;99.90;;;;;;5069450;28;20477;-86
2022/12/11 01:05:09;;;;;;;429.30;406.90;;;0.60;99.90;;;;;;5061086;28;20448;-87
2022/12/11 01:07:35;;;;;;;422.45;401.98;;;0.70;99.90;;;;;;5050032;28;20467;-87
2022/12/11 01:12:47;;;;;;;423.13;401.80;;;0.60;99.90;;;;;;5050561;28;20499;-87
2022/12/11 01:15:14;;;;;;;417.07;396.50;;;0.60;99.90;;;;;;5059206;28;20451;-87
2022/12/11 01:17:41;;;;;;;417.93;396.50;;;0.50;99.90;;;;;;5071044;28;20898;-87
2022/12/11 01:20:10;;;;;;;421.40;400.93;;;0.60;99.90;;;;;;5063350;28;20448;-86
2022/12/11 01:22:37;;;;;;;429.10;405.57;;;0.60;99.90;;;;;;5050811;28;20464;-86
2022/12/11 01:25:04;;;;;;;438.07;415.07;;;0.60;99.90;;;;;;5067414;28;20466;-87
2022/12/11 01:27:31;;;;;;;442.60;418.50;;;0.60;99.90;;;;;;5050651;28;20456;-87
2022/12/11 01:29:58;;;;;;;438.07;415.97;;;0.60;99.90;;;;;;5069831;28;20447;-87
2022/12/11 01:32:24;;;;;;;446.10;420.73;;;0.60;99.90;;;;;;5070944;28;20482;-87
2022/12/11 01:34:51;;;;;;;440.57;417.67;;;0.60;99.90;;;;;;5051885;28;20459;-87
2022/12/11 01:37:20;;;;;;;423.03;402.80;;;0.50;99.90;;;;;;5050333;28;20452;-87
2022/12/11 01:39:47;;;;;;;408.07;387.70;;;0.50;99.90;;;;;;5065773;28;20466;-87
2022/12/11 01:42:17;;;;;;;400.13;381.93;;;0.50;99.90;;;;;;5069829;28;20471;-86
2022/12/11 01:45:24;;;;;;;396.67;377.50;;;0.60;99.90;;;;;;5053377;28;20452;-87
2022/12/11 01:47:52;;;;;;;393.43;372.67;;;0.50;99.90;;;;;;5050392;28;20455;-87
2022/12/11 01:50:19;;;;;;;396.97;375.97;;;0.60;99.90;;;;;;5069032;28;20456;-86
2022/12/11 01:52:49;;;;;;;399.87;378.60;;;0.50;99.90;;;;;;5059820;28;20480;-87
2022/12/11 01:55:18;;;;;;;405.40;383.67;;;0.60;99.90;;;;;;5049850;28;20480;-87
2022/12/11 01:57:48;;;;;;;403.27;381.90;;;0.60;99.90;;;;;;5059071;28;21021;-86
2022/12/11 02:00:16;;;;;;;379.40;359.53;;;0.60;99.90;;;;;;5069271;28;20459;-87
2022/12/11 02:02:43;;;;;;;373.47;355.10;;;0.60;99.90;;;;;;5060928;28;20468;-87
2022/12/11 02:05:11;;;;;;;359.60;340.80;;;0.60;99.90;;;;;;5049557;28;20948;-86
2022/12/11 02:07:42;;;;;;;357.57;339.33;;;0.50;99.90;;;;;;5056577;28;20479;-87
2022/12/11 02:10:12;;;;;;;346.30;328.60;;;0.60;99.90;;;;;;5068106;28;20439;-87
2022/12/11 02:12:47;;;;;;;338.33;320.87;;;0.60;99.90;;;;;;5061705;28;20472;-87
2022/12/11 02:15:20;;;;;;;328.57;313.30;;;0.60;99.90;;;;;;5049506;28;20454;-87
2022/12/11 02:17:50;;;;;;;332.27;315.17;;;0.70;99.90;;;;;;5056315;28;20470;-87
2022/12/11 02:20:23;;;;;;;315.43;299.27;;;0.60;99.90;;;;;;5069550;28;20454;-88
2022/12/11 02:23:05;;;;;;;321.43;305.33;;;0.60;99.90;;;;;;5051572;28;20468;-87
2022/12/11 02:25:41;;;;;;;325.07;307.10;;;0.60;99.90;;;;;;5049900;28;20458;-86
2022/12/11 02:28:18;;;;;;;329.80;311.03;;;0.60;99.90;;;;;;5068271;28;20483;-87
2022/12/11 02:30:50;;;;;;;313.53;295.70;;;0.70;99.90;;;;;;5069350;28;20458;-87
2022/12/11 02:33:18;;;;;;;308.90;293.97;;;0.60;99.90;;;;;;5069263;28;20447;-87
2022/12/11 02:35:47;;;;;;;320.10;301.17;;;0.70;99.90;;;;;;5069192;28;20451;-87
2022/12/11 02:38:18;;;;;;;320.53;303.13;;;0.70;99.90;;;;;;5048914;28;20453;-85
2022/12/11 02:40:49;;;;;;;326.77;307.87;;;0.70;99.90;;;;;;5048380;28;20483;-86
2022/12/11 02:43:19;;;;;;;343.20;323.63;;;0.80;99.90;;;;;;5068349;28;20511;-87
2022/12/11 02:45:47;;;;;;;339.90;321.30;;;0.80;99.90;;;;;;5068923;28;20451;-87
2022/12/11 02:48:17;;;;;;;325.97;309.63;;;0.70;99.90;;;;;;5050105;28;20472;-87
2022/12/11 02:50:47;;;;;;;329.77;313.30;;;0.80;99.90;;;;;;5048482;28;20452;-87
2022/12/11 02:53:18;;;;;;;325.07;308.50;;;0.70;99.90;;;;;;5048200;28;20475;-87
2022/12/11 02:55:47;;;;;;;323.23;307.30;;;0.70;99.90;;;;;;5055547;28;20458;-87
2022/12/11 02:58:18;;;;;;;319.77;302.83;;;0.70;99.90;;;;;;5068949;28;20447;-87
2022/12/11 03:00:46;;;;;;;321.43;304.50;;;0.80;99.90;;;;;;5060752;28;20448;-86
2022/12/11 03:03:13;;;;;;;310.47;294.23;;;0.70;99.90;;;;;;5048918;28;20995;-87
2022/12/11 03:05:41;;;;;;;310.50;295.00;;;0.80;99.90;;;;;;5048908;28;20448;-87
2022/12/11 03:08:08;;;;;;;306.57;291.27;;;0.70;99.90;;;;;;5048651;28;20452;-87
2022/12/11 03:10:35;;;;;;;308.00;293.27;;;0.70;99.90;;;;;;5052137;28;20448;-86
2022/12/11 03:13:03;;;;;;;308.57;293.47;;;0.70;99.90;;;;;;5068292;28;21007;-88
2022/12/11 03:15:39;;;;;;;304.40;288.17;;;0.70;99.90;;;;;;5064426;28;20451;-87
2022/12/11 03:18:12;;;;;;;307.17;291.90;;;0.60;99.90;;;;;;5044749;28;20450;-87
2022/12/11 03:20:43;;;;;;;308.80;292.77;;;0.60;99.90;;;;;;5051653;28;20514;-87
2022/12/11 03:23:20;;;;;;;325.23;307.20;;;0.60;99.90;;;;;;5067800;28;20443;-87
2022/12/11 03:25:53;;;;;;;314.70;298.30;;;0.70;99.90;;;;;;5064177;28;20448;-86
2022/12/11 03:28:26;;;;;;;319.70;303.40;;;0.60;99.90;;;;;;5048016;28;20452;-87
2022/12/11 03:30:55;;;;;;;322.50;306.43;;;0.60;99.90;;;;;;5062424;28;20455;-86
2022/12/11 03:33:25;;;;;;;309.23;294.07;;;0.70;99.90;;;;;;5068660;28;20454;-87
2022/12/11 03:35:54;;;;;;;309.33;294.17;;;0.60;99.90;;;;;;5063593;28;20451;-87
2022/12/11 03:38:27;;;;;;;302.70;287.80;;;0.70;99.90;;;;;;5047476;28;20471;-88
2022/12/11 03:40:58;;;;;;;301.27;285.83;;;0.60;99.90;;;;;;5044193;28;20460;-87
2022/12/11 03:43:26;;;;;;;302.10;288.07;;;0.60;99.90;;;;;;5060300;28;20444;-88
2022/12/11 03:45:55;;;;;;;308.48;292.23;;;0.60;99.90;;;;;;5064199;28;20516;-87
2022/12/11 03:48:25;;;;;;;308.80;293.60;;;0.60;99.90;;;;;;5047022;28;20208;-87
2022/12/11 03:50:52;;;;;;;325.43;308.80;;;0.70;99.90;;;;;;5049887;28;20460;-86
2022/12/11 03:53:20;;;;;;;330.13;314.60;;;0.60;99.90;;;;;;5073203;28;20976;-86
2022/12/11 03:55:49;;;;;;;339.83;324.00;;;0.70;99.90;;;;;;5085015;28;20450;-87
2022/12/11 03:58:16;;;;;;;358.27;340.83;;;0.70;99.90;;;;;;5065937;28;20455;-86
2022/12/11 04:00:43;;;;;;;343.90;326.30;;;0.60;99.90;;;;;;5059542;28;20459;-86
2022/12/11 04:03:14;;;;;;;353.13;335.67;;;0.60;99.90;;;;;;5050304;28;20439;-86
2022/12/11 04:05:42;;;;;;;369.47;351.20;;;0.60;99.90;;;;;;5066815;28;20462;-86
2022/12/11 04:08:08;;;;;;;385.93;366.30;;;0.50;99.90;;;;;;5066743;28;20455;-87
2022/12/11 04:10:35;;;;;;;407.07;386.27;;;0.60;99.90;;;;;;5065815;28;20471;-86
2022/12/11 04:13:02;;;;;;;422.97;401.80;;;0.50;99.90;;;;;;5058660;28;20452;-87
2022/12/11 04:15:28;;;;;;;430.83;408.87;;;0.50;99.90;;;;;;5047593;28;20444;-87
2022/12/11 04:26:10;;;;;;;491.90;466.00;;;0.40;99.90;;;;;;5047269;28;20451;-86
2022/12/11 04:28:37;;;;;;;502.87;476.17;;;0.40;99.90;;;;;;5052594;28;20455;-81
2022/12/11 04:31:04;;;;;;;510.97;482.97;;;0.40;99.90;;;;;;5060333;28;20475;-86
2022/12/11 04:33:31;;;;;;;512.93;484.57;;;0.40;99.90;;;;;;5060982;28;20450;-86
2022/12/11 04:36:00;;;;;;;518.70;488.92;;;0.40;99.90;;;;;;5047978;28;20448;-86
2022/12/11 04:38:27;;;;;;;521.40;492.47;;;0.40;99.90;;;;;;5054439;28;20195;-86
2022/12/11 04:40:58;;;;;;;531.33;500.58;;;0.40;99.90;;;;;;5058318;28;20936;-86
2022/12/11 04:43:26;;;;;;;528.93;499.57;;;0.40;99.90;;;;;;5070515;28;20193;-86
2022/12/11 04:46:01;;;;;;;525.83;495.37;;;0.40;99.90;;;;;;5066546;28;20451;-86
2022/12/11 04:48:27;;;;;;;530.07;500.27;;;0.40;99.90;;;;;;5070598;28;20455;-86
2022/12/11 04:50:54;;;;;;;530.60;499.27;;;0.40;99.90;;;;;;5068940;28;20463;-85
2022/12/11 04:53:22;;;;;;;529.10;498.53;;;0.40;99.90;;;;;;5063599;28;20829;-86
2022/12/11 04:55:49;;;;;;;524.07;494.27;;;0.40;99.90;;;;;;5059767;28;20454;-86
2022/12/11 04:58:16;;;;;;;527.37;497.57;;;0.40;99.90;;;;;;5050166;28;20456;-87
2022/12/11 05:00:43;;;;;;;526.07;494.57;;;0.50;99.90;;;;;;5065966;28;20439;-85
2022/12/11 05:03:09;;;;;;;526.57;495.90;;;0.40;99.90;;;;;;5066271;28;20448;-86
2022/12/11 05:05:36;;;;;;;513.23;483.53;;;0.40;99.90;;;;;;5053541;28;20458;-85
2022/12/11 05:08:03;;;;;;;496.53;469.00;;;0.30;99.90;;;;;;5058296;28;20451;-86
2022/12/11 05:10:31;;;;;;;494.77;466.90;;;0.30;99.90;;;;;;5049143;28;20479;-85
2022/12/11 05:12:58;;;;;;;485.37;458.30;;;0.40;99.90;;;;;;5063356;28;20467;-86
2022/12/11 05:15:24;;;;;;;470.37;445.40;;;0.30;99.90;;;;;;5067540;28;20451;-85
2022/12/11 05:17:51;;;;;;;478.43;451.87;;;0.30;99.90;;;;;;5070161;28;20451;-86
2022/12/11 05:20:18;;;;;;;474.93;450.00;;;0.30;99.90;;;;;;5068483;28;20455;-85
2022/12/11 05:22:45;;;;;;;465.23;440.47;;;0.30;99.90;;;;;;5069854;28;20475;-86
2022/12/11 05:25:11;;;;;;;470.07;445.00;;;0.40;99.90;;;;;;5052496;28;20453;-86
2022/12/11 05:27:39;;;;;;;463.57;437.33;;;0.50;99.90;;;;;;5053780;28;20872;-86
2022/12/11 05:30:08;;;;;;;463.30;439.20;;;0.30;99.90;;;;;;5067645;28;20479;-85
2022/12/11 05:32:35;;;;;;;455.17;430.30;;;0.40;99.90;;;;;;5066366;28;21023;-85
2022/12/11 05:35:02;;;;;;;461.60;433.80;;;0.30;99.90;;;;;;5048536;28;20462;-86
2022/12/11 05:37:29;;;;;;;457.20;433.20;;;0.30;99.90;;;;;;5054317;28;20444;-86
2022/12/11 05:39:56;;;;;;;452.33;428.07;;;0.30;99.90;;;;;;5050764;28;20452;-85
2022/12/11 05:42:23;;;;;;;459.30;435.97;;;0.40;99.90;;;;;;5054418;28;20503;-86
2022/12/11 05:44:52;;;;;;;456.60;434.40;;;0.40;99.90;;;;;;5058859;28;20445;-86
2022/12/11 05:47:20;;;;;;;462.13;438.23;;;0.30;99.90;;;;;;5061408;28;20455;-86
2022/12/11 05:49:47;;;;;;;463.47;440.57;;;0.40;99.90;;;;;;5058432;28;20554;-86
2022/12/11 05:52:15;;;;;;;465.80;440.57;;;0.50;99.90;;;;;;5045505;28;20847;-85
2022/12/11 05:54:42;;;;;;;451.67;429.67;;;0.40;99.90;;;;;;5051267;28;20455;-84
2022/12/11 05:57:09;;;;;;;456.00;433.80;;;0.30;99.90;;;;;;5062242;28;20831;-85
2022/12/11 05:59:35;;;;;;;448.47;427.00;;;0.40;99.90;;;;;;5055427;28;20444;-86
2022/12/11 06:02:03;;;;;;;442.53;419.73;;;0.40;99.90;;;;;;5045472;28;20464;-85
2022/12/11 06:04:30;;;;;;;434.80;412.90;;;0.40;99.90;;;;;;5053701;28;20447;-86
2022/12/11 06:06:59;;;;;;;427.73;407.30;;;0.40;99.90;;;;;;5052513;28;20460;-86
2022/12/11 06:09:26;;;;;;;422.97;402.13;;;0.50;99.90;;;;;;5063546;28;20464;-86
2022/12/11 06:11:53;;;;;;;407.90;388.17;;;0.40;99.90;;;;;;5050758;28;20475;-85
2022/12/11 06:14:20;;;;;;;396.40;376.57;;;0.40;99.90;;;;;;5063265;28;20486;-85
2022/12/11 06:16:47;;;;;;;408.40;388.67;;;0.50;99.90;;;;;;5057547;28;20457;-85
2022/12/11 06:19:17;;;;;;;405.13;385.63;;;0.40;99.90;;;;;;5053487;28;20453;-85
2022/12/11 06:21:45;;;;;;;399.73;378.80;;;0.50;99.90;;;;;;5065903;28;20460;-86
2022/12/11 06:24:12;;;;;;;402.33;382.77;;;0.40;99.90;;;;;;5058424;28;20460;-86
2022/12/11 06:26:39;;;;;;;398.93;380.60;;;0.50;99.90;;;;;;5046268;28;20459;-84
2022/12/11 06:29:05;;;;;;;381.80;363.67;;;0.50;99.90;;;;;;5049522;28;20455;-85
2022/12/11 06:31:32;;;;;;;386.80;368.90;;;0.40;99.90;;;;;;5061823;28;20475;-82
2022/12/11 06:34:06;;;;;;;391.23;370.50;;;0.50;99.90;;;;;;5057612;28;20482;-86
2022/12/11 06:36:34;;;;;;;369.42;350.80;;;0.40;99.90;;;;;;5050391;28;20457;-85
2022/12/11 06:39:05;;;;;;;377.23;360.03;;;0.50;99.90;;;;;;5052545;28;20208;-85
2022/12/11 06:41:34;;;;;;;375.10;358.47;;;0.40;99.90;;;;;;5047861;28;20503;-85
2022/12/11 06:44:02;;;;;;;380.90;362.30;;;0.50;99.90;;;;;;5061340;28;20448;-86
2022/12/11 06:46:29;;;;;;;383.40;365.97;;;0.50;99.90;;;;;;5051427;28;20458;-85
2022/12/11 06:48:56;;;;;;;390.90;372.23;;;0.50;99.90;;;;;;5053344;28;20519;-82
2022/12/11 06:51:23;;;;;;;392.73;374.83;;;0.60;99.90;;;;;;5061669;28;20506;-83
2022/12/11 06:53:56;;;;;;;395.37;377.10;;;0.50;99.90;;;;;;5063451;28;20459;-83
2022/12/11 06:56:24;;;;;;;391.30;373.97;;;0.50;99.90;;;;;;5058791;28;20482;-84
2022/12/11 06:58:51;;;;;;;394.23;375.13;;;0.50;99.90;;;;;;5045007;28;20459;-83
2022/12/11 07:01:20;;;;;;;380.40;361.70;;;0.50;99.90;;;;;;5047173;28;20850;-82
2022/12/11 07:03:47;;;;;;;367.27;350.23;;;0.50;99.90;;;;;;5046236;28;20456;-83
2022/12/11 07:06:15;;;;;;;349.20;333.27;;;0.50;99.90;;;;;;5050562;28;20197;-83
2022/12/11 07:08:42;;;;;;;349.20;332.00;;;0.60;99.90;;;;;;5044034;28;20972;-83
2022/12/11 07:11:12;;;;;;;335.87;320.80;;;0.50;99.90;;;;;;5045171;28;20681;-84
2022/12/11 07:13:40;;;;;;;334.50;319.00;;;0.50;99.90;;;;;;5053992;28;20447;-84
2022/12/11 07:16:09;;;;;;;322.93;308.43;;;0.50;99.90;;;;;;5048488;28;20488;-83
2022/12/11 07:18:37;;;;;;;315.73;300.93;;;0.50;99.90;;;;;;5046368;28;20949;-83
2022/12/11 07:21:05;;;;;;;320.40;306.17;;;0.50;99.90;;;;;;5053410;28;20467;-83
2022/12/11 07:23:32;;;;;;;314.13;299.33;;;0.60;99.90;;;;;;5049006;28;20451;-83
2022/12/11 07:25:58;;;;;;;318.50;302.87;;;0.50;99.90;;;;;;5057319;28;20458;-83
2022/12/11 07:28:27;;;;;;;308.80;294.40;;;0.50;99.90;;;;;;5055646;28;20447;-82
2022/12/11 07:30:56;;;;;;;301.27;288.07;;;0.60;99.90;;;;;;5046289;28;20213;-82
2022/12/11 07:33:23;;;;;;;279.17;266.23;;;0.70;99.90;;;;;;5039252;28;20480;-82
2022/12/11 07:35:50;;;;;;;264.53;252.43;;;0.60;99.90;;;;;;5047586;28;20447;-83
2022/12/11 07:38:19;;;;;;;260.33;248.33;;;0.60;99.90;;;;;;5046913;28;20480;-85
2022/12/11 07:40:46;;;;;;;257.77;244.90;;;0.60;99.90;;;;;;5045421;28;20447;-84
2022/12/11 07:43:13;;;;;;;239.47;228.10;;;0.60;99.90;;;;;;5049628;28;20497;-83
2022/12/11 07:45:52;;;;;;;223.53;212.43;;;0.60;99.90;;;;;;5043892;28;20462;-83
2022/12/11 07:48:21;;;;;;;194.10;184.07;;;0.60;99.90;;;;;;5049030;28;20449;-84
2022/12/11 07:50:49;;;;;;;175.37;165.83;;;0.50;99.90;;;;;;5043316;28;20471;-83
2022/12/11 07:53:18;;;;;;;173.17;164.53;;;0.60;99.90;;;;;;5052855;28;20550;-83
2022/12/11 07:55:49;;;;;;;164.80;156.40;;;0.60;99.90;;;;;;5042661;28;20452;-84
2022/12/11 07:58:19;;;;;;;159.00;150.35;;;0.60;99.90;;;;;;5040989;28;20456;-84
2022/12/11 08:00:48;;;;;;;151.63;143.83;;;0.70;99.90;;;;;;5041882;28;20535;-84
2022/12/11 08:03:18;;;;;;;159.03;149.80;;;0.60;99.90;;;;;;5049916;28;20447;-83
2022/12/11 08:05:49;;;;;;;155.97;147.43;;;0.70;99.90;;;;;;5058643;28;20449;-85
2022/12/11 08:08:15;;;;;;;159.20;150.40;;;0.70;99.90;;;;;;5060043;28;20452;-84
2022/12/11 08:10:42;;;;;;;148.43;139.35;;;0.70;99.90;;;;;;5058541;28;20482;-83
2022/12/11 08:13:09;;;;;;;144.10;135.87;;;0.70;99.90;;;;;;5052814;28;20573;-83
2022/12/11 08:15:37;;;;;;;128.93;121.07;;;0.70;99.90;;;;;;5042903;28;20451;-83
2022/12/11 08:18:05;;;;;;;114.17;106.20;;;0.70;99.90;;;;;;5054170;28;20477;-83
2022/12/11 08:20:32;;;;;;;118.73;111.23;;;0.70;99.90;;;;;;5061591;28;20447;-83
2022/12/11 08:22:59;;;;;;;109.53;102.93;;;0.70;99.90;;;;;;5056529;28;20494;-84
2022/12/11 08:25:26;;;;;;;108.77;101.50;;;0.80;99.90;;;;;;5054454;28;21025;-83
2022/12/11 08:27:53;;;;;;;98.30;91.43;;;0.90;99.90;;;;;;5055024;28;20527;-86
2022/12/11 08:30:20;;;;;;;87.03;80.53;;;0.90;99.90;;;;;;5052452;28;20475;-83
2022/12/11 08:32:46;;;;;;;78.97;73.50;;;0.90;99.90;;;;;;5053537;28;20473;-84
2022/12/11 08:35:15;;;;;;;79.13;73.23;;;0.70;99.90;;;;;;5056011;28;20458;-84
2022/12/11 08:37:43;;;;;;;74.67;68.70;;;0.80;99.90;;;;;;5063491;28;20455;-84
2022/12/11 08:40:11;;;;;;;66.87;61.30;;;0.80;99.90;;;;;;5053887;28;20968;-84
2022/12/11 08:42:48;;;;;;;64.07;58.50;;;0.80;99.90;;;;;;5048291;28;20854;-86
2022/12/11 08:45:26;;;;;;;43.22;37.70;;;0.80;99.90;;;;;;5040620;28;20467;-87
2022/12/11 08:47:58;;;;;;;48.40;43.20;;;0.90;99.90;;;;;;5048633;28;20421;-86
2022/12/11 08:50:32;;;;;;;46.13;40.97;;;1.00;99.90;;;;;;5056312;28;20464;-86
2022/12/11 08:53:05;;;;;;;48.40;41.20;;;0.90;99.90;;;;;;5052380;28;20562;-86
2022/12/11 08:55:32;;;;;;;46.90;39.57;;;1.00;99.90;;;;;;5051845;28;21006;-85
2022/12/11 08:57:59;;;;;;;43.70;38.53;;;1.00;99.90;;;;;;5050648;28;20452;-85
2022/12/11 09:00:29;;;;;;;37.33;28.60;;;1.10;99.90;;;;;;5051397;28;20448;-86
2022/12/11 09:02:57;;;;;;;43.23;29.83;;;1.00;99.90;;;;;;5047313;28;20530;-85
2022/12/11 09:05:30;;;;;;;39.03;32.47;;;1.10;99.90;;;;;;5047715;28;20456;-85
2022/12/11 09:07:58;;;;;;;44.80;32.07;;;1.10;99.90;;;;;;5045331;28;20448;-85
2022/12/11 09:10:28;;;;;;;42.87;34.57;;;1.00;99.90;;;;;;5055053;28;20474;-85
2022/12/11 09:12:54;;;;;;;38.87;34.80;;;1.10;99.90;;;;;;5064443;28;20479;-85
2022/12/11 09:15:21;;;;;;;38.70;34.80;;;1.10;99.90;;;;;;5054300;28;20454;-84
2022/12/11 09:17:48;;;;;;;41.57;37.53;;;1.00;99.90;;;;;;5050271;28;20506;-85
2022/12/11 09:20:15;;;;;;;44.63;39.80;;;1.10;99.90;;;;;;5042049;28;20515;-84
2022/12/11 09:22:43;;;;;;;45.73;38.93;;;1.20;99.90;;;;;;5032859;28;20471;-84
2022/12/11 09:25:10;;;;;;;35.67;32.03;;;1.10;99.90;;;;;;5053828;28;20547;-84
2022/12/11 09:27:38;;;;;;;45.00;28.37;;;1.10;99.90;;;;;;5052476;28;20456;-84
2022/12/11 09:30:09;;;;;;;41.87;28.73;;;1.10;99.90;;;;;;5056762;28;20466;-84
2022/12/11 09:32:38;;;;;;;37.17;28.30;;;1.30;99.90;;;;;;5058808;28;20493;-84
2022/12/11 09:35:09;;;;;;;35.27;26.17;;;1.20;99.90;;;;;;5059412;28;20487;-84
2022/12/11 09:37:41;;;;;;;41.90;29.33;;;1.20;99.90;;;;;;5063034;28;20482;-85
2022/12/11 09:40:11;;;;;;;34.83;25.87;;;1.20;99.90;;;;;;5058287;28;20478;-85
2022/12/11 09:42:55;;;;;;;28.50;22.87;;;1.30;99.90;;;;;;5051691;28;20482;-85
2022/12/11 09:45:22;;;;;;;38.83;25.43;;;1.20;99.90;;;;;;5055992;28;20452;-85
2022/12/11 09:47:51;;;;;;;37.60;23.50;;;1.30;99.90;;;;;;5052717;28;20466;-84
2022/12/11 09:50:24;;;;;;;34.70;22.03;;;1.20;99.90;;;;;;5046954;28;20531;-84
2022/12/11 09:53:07;;;;;;;40.33;24.03;;;1.30;99.90;;;;;;5042067;28;20484;-84
2022/12/11 09:55:43;;;;;;;42.50;26.20;;;1.40;99.90;;;;;;5046293;28;20459;-84
2022/12/11 09:58:18;;;;;;;38.60;21.43;;;1.40;99.90;;;;;;5054164;28;20455;-84
2022/12/11 10:00:48;;;;;;;33.60;21.40;;;1.30;99.90;;;;;;5045798;28;20451;-84
2022/12/11 10:03:41;;;;;;;34.03;21.03;;;1.20;99.90;;;;;;5061439;28;20477;-84
2022/12/11 10:06:19;;;;;;;38.40;21.47;;;1.30;99.90;;;;;;5045949;28;20468;-84
2022/12/11 10:09:01;;;;;;;37.03;22.40;;;1.30;99.90;;;;;;5044071;28;20452;-85
2022/12/11 10:11:47;;;;;;;37.03;22.13;;;1.40;99.90;;;;;;5051008;28;20694;-84
2022/12/11 10:14:22;;;;;;;39.63;22.03;;;1.30;99.90;;;;;;5058441;28;20447;-84
2022/12/11 10:16:58;;;;;;;39.97;22.37;;;1.20;99.90;;;;;;5062839;28;20451;-85
2022/12/11 10:19:28;;;;;;;44.87;21.63;;;1.20;99.90;;;;;;5062070;28;20501;-83
2022/12/11 10:22:01;;;;;;;41.83;21.50;;;1.30;99.90;;;;;;5053709;28;20465;-83
2022/12/11 10:24:36;;;;;;;35.87;22.93;;;1.50;99.90;;;;;;5045383;28;20531;-82
2022/12/11 10:27:20;;;;;;;37.03;21.37;;;1.50;99.90;;;;;;5060005;28;20462;-83
2022/12/11 10:29:47;;;;;;;31.17;18.90;;;1.60;99.90;;;;;;5051891;28;20448;-82
2022/12/11 10:32:23;;;;;;;34.27;19.17;;;1.70;99.90;;;;;;5047234;28;20511;-83
2022/12/11 10:34:57;;;;;;;29.23;17.77;;;1.60;99.90;;;;;;5056879;28;20448;-83
2022/12/11 10:37:23;;;;;;;36.80;18.43;;;1.60;99.90;;;;;;5045428;28;20452;-83
2022/12/11 10:39:52;;;;;;;36.93;18.47;;;1.50;99.90;;;;;;5053373;28;20451;-83
2022/12/11 10:42:23;;;;;;;35.87;19.37;;;1.50;99.90;;;;;;5066240;28;20491;-83
2022/12/11 10:44:58;;;;;;;33.53;20.67;;;1.40;99.90;;;;;;5057685;28;20471;-83
2022/12/11 10:47:25;;;;;;;36.20;19.03;;;1.40;99.90;;;;;;5049925;28;20497;-85
2022/12/11 10:49:54;;;;;;;50.10;23.73;;;1.50;99.90;;;;;;5062656;28;20966;-83
2022/12/11 10:52:32;;;;;;;33.37;20.87;;;1.50;99.90;;;;;;5046351;28;20487;-83
2022/12/11 10:55:01;;;;;;;35.70;22.20;;;1.60;99.90;;;;;;5044773;28;20456;-85
2022/12/11 10:57:32;;;;;;;40.17;21.27;;;1.50;99.90;;;;;;5041685;28;20479;-84
2022/12/11 11:00:00;;;;;;;40.23;20.90;;;1.60;99.90;;;;;;5042947;28;20459;-84
2022/12/11 11:02:30;;;;;;;34.63;20.30;;;1.60;99.90;;;;;;5042735;28;20478;-85
2022/12/11 11:05:04;;;;;;;31.27;19.37;;;1.60;99.90;;;;;;5049556;28;20452;-85
2022/12/11 11:07:33;;;;;;;34.17;19.63;;;1.70;99.90;;;;;;5054992;28;20519;-84
2022/12/11 11:10:13;;;;;;;35.87;18.67;;;1.60;99.90;;;;;;5039411;28;20968;-84
2022/12/11 11:12:58;;;;;;;33.60;18.37;;;1.60;99.90;;;;;;5039986;28;20997;-84
2022/12/11 11:15:27;;;;;;;35.23;16.13;;;1.60;99.90;;;;;;5046340;28;20498;-84
2022/12/11 11:17:56;;;;;;;36.27;20.10;;;1.60;99.90;;;;;;5040567;28;20927;-83
2022/12/11 11:20:26;;;;;;;35.33;20.53;;;1.50;99.90;;;;;;5044774;28;20455;-82
2022/12/11 11:22:56;;;;;;;36.07;18.77;;;1.50;99.90;;;;;;5049146;28;20502;-84
2022/12/11 11:25:24;;;;;;;45.37;23.80;;;1.50;99.90;;;;;;5054077;28;20453;-84
2022/12/11 11:27:58;;;;;;;29.60;20.37;;;1.50;99.90;;;;;;5055008;28;20463;-84
2022/12/11 11:30:27;;;;;;;33.77;20.73;;;1.60;99.90;;;;;;5057320;28;20467;-84
2022/12/11 11:32:56;;;;;;;33.20;21.17;;;1.50;99.90;;;;;;5055872;28;20531;-84
2022/12/11 11:35:25;;;;;;;37.17;19.93;;;1.40;99.90;;;;;;5046537;28;20579;-84
2022/12/11 11:38:02;;;;;;;36.57;22.63;;;1.50;99.90;;;;;;5040437;28;20459;-85
2022/12/11 11:40:30;;;;;;;38.43;23.70;;;1.50;99.90;;;;;;5041918;28;20447;-85
2022/12/11 11:43:27;;;;;;;40.87;24.90;;;1.40;99.90;;;;;;5041920;28;20464;-84
2022/12/11 11:46:17;;;;;;;38.20;25.37;;;1.40;99.90;;;;;;5054581;28;20466;-84
2022/12/11 11:49:18;;;;;;;32.63;19.33;;;1.50;99.90;;;;;;5061573;28;20451;-84
2022/12/11 11:51:50;;;;;;;35.63;21.60;;;1.40;99.90;;;;;;5059763;28;20486;-84
2022/12/11 11:54:38;;;;;;;44.43;24.47;;;1.40;99.90;;;;;;5061013;28;20554;-84
2022/12/11 11:57:14;;;;;;;53.73;26.07;;;1.40;99.90;;;;;;5061473;28;20956;-84
2022/12/11 11:59:48;;;;;;;40.43;24.70;;;1.40;99.90;;;;;;5041061;28;20452;-85
2022/12/11 12:05:12;;;;;;;40.73;27.50;;;1.30;99.90;;;;;;5040280;28;20460;-84
2022/12/11 12:07:49;;;;;;;50.07;30.40;;;1.40;99.90;;;;;;5042524;28;20453;-84
2022/12/11 12:10:59;;;;;;;41.27;30.83;;;1.40;99.90;;;;;;5060869;28;20473;-86
2022/12/11 12:13:37;;;;;;;49.17;35.37;;;1.40;99.90;;;;;;5060463;28;20494;-86
2022/12/11 12:16:11;;;;;;;47.67;35.10;;;1.40;99.90;;;;;;5043736;28;20953;-85
2022/12/11 12:19:01;;;;;;;46.90;30.87;;;1.50;99.90;;;;;;5044727;28;20443;-84
2022/12/11 12:21:45;;;;;;;49.00;30.60;;;1.50;99.90;;;;;;5054152;28;20510;-83
2022/12/11 12:24:32;;;;;;;47.23;31.97;;;1.60;99.90;;;;;;5048575;28;20464;-83
2022/12/11 12:27:19;;;;;;;53.30;33.10;;;1.50;99.90;;;;;;5048496;28;20455;-84
2022/12/11 12:29:55;;;;;;;40.30;32.07;;;1.40;99.90;;;;;;5049206;28;20458;-84
2022/12/11 12:32:45;;;;;;;48.83;33.40;;;1.50;99.90;;;;;;5049311;28;20553;-84
2022/12/11 12:35:30;;;;;;;35.70;31.23;;;1.40;99.90;;;;;;5049647;28;20520;-84
2022/12/11 12:38:11;;;;;;;44.27;31.83;;;1.40;99.90;;;;;;5049169;28;20455;-84
2022/12/11 12:40:58;;;;;;;47.97;34.47;;;1.40;99.90;;;;;;5050865;28;20448;-83
2022/12/11 12:43:47;;;;;;;40.20;34.20;;;1.40;99.90;;;;;;5050482;28;20451;-84
2022/12/11 12:46:31;;;;;;;55.77;40.90;;;1.60;99.90;;;;;;5047837;28;20952;-84
2022/12/11 12:49:04;;;;;;;46.23;37.00;;;1.80;99.90;;;;;;5050894;28;20452;-85
2022/12/11 12:51:37;;;;;;;47.90;31.23;;;1.90;99.90;;;;;;5048796;28;20478;-85
2022/12/11 12:54:08;;;;;;;55.70;31.43;;;2.00;99.90;;;;;;5050788;28;20779;-84